SBCG/CGR METAR and TAF weather

Enter ICAO airport designator
Station Type Date Time Source
SBCG METAR 2020/09/22 17:00 UTC NOAA

SBCG 221700Z VRB03KT 9999 SCT020 BKN090 23/17 Q1018


Station Type Date Time Source
SBCG Decoded METAR 2020/09/22 17:00 UTC NOAA

Campo Grande Aeroporto , Brazil (SBCG) 20-28S 054-40W 567M
Sep 22, 2020 - 01:00 PM EDT / 2020.09.22 1700 UTC
Wind: Variable at 3 MPH (3 KT):0
Visibility: greater than 7 mile(s):0
Sky conditions: mostly cloudy
Temperature: 73 F (23 C)
Dew Point: 62 F (17 C)
Relative Humidity: 68%
Pressure (altimeter): 30.06 in. Hg (1018 hPa)
ob: SBCG 221700Z VRB03KT 9999 SCT020 BKN090 23/17 Q1018
cycle: 17

Station Type Date Time Source
SBCG TAF 2020/09/22 18:22 UTC NOAA

TAF SBCG 221600Z 2218/2318 17010KT 9999 FEW035 TN18/2309Z TX28/2317Z
BECMG 2302/2304 09010KT SCT030
BECMG 2306/2308 11010KT CAVOK
BECMG 2308/2310 11018KT
RMK PHH

Example: see airport list